Time;durP1;ratioP1;P1;durP2;ratioP2;P2;SDS_P1;SDS_P2;PMS_P1;PMS_P2;Temp;Humidity;BMP_temperature;BMP_pressure;BME280_temperature;BME280_humidity;BME280_pressure;Samples;Min_cycle;Max_cycle;Signal;HPM_P1;HPM_P2
2021/11/26 00:00:00;;;;;;;63.00;39.70;;;22.00;94.10;;;;;;4178529;28;20131;-73
2021/11/26 00:02:06;;;;;;;53.95;34.50;;;22.00;94.30;;;;;;4181205;28;20519;-73
2021/11/26 00:04:20;;;;;;;;;;;22.00;94.30;;;;;;4191748;28;20457;-73
2021/11/26 00:06:26;;;;;;;33.35;23.45;;;22.00;94.10;;;;;;4191490;28;19925;-73
2021/11/26 00:08:30;;;;;;;34.38;22.42;;;21.80;94.10;;;;;;4176871;28;20052;-73
2021/11/26 00:10:34;;;;;;;32.35;21.65;;;21.70;94.40;;;;;;4189921;28;20360;-73
2021/11/26 00:12:40;;;;;;;29.23;20.77;;;21.60;94.70;;;;;;4189837;28;20406;-74
2021/11/26 00:15:05;;;;;;;29.88;21.08;;;21.60;94.70;;;;;;4188764;28;20087;-74
2021/11/26 00:17:15;;;;;;;30.20;20.30;;;21.70;94.30;;;;;;4184773;28;20060;-74
2021/11/26 00:19:20;;;;;;;32.92;18.55;;;21.80;94.10;;;;;;4191206;28;20052;-73
2021/11/26 00:21:24;;;;;;;35.13;21.65;;;21.90;94.00;;;;;;4186052;28;20064;-74
2021/11/26 00:23:29;;;;;;;29.30;20.17;;;22.00;94.00;;;;;;4190518;28;20044;-74
2021/11/26 00:25:34;;;;;;;40.10;25.15;;;22.00;93.90;;;;;;4188516;28;20067;-73
2021/11/26 00:27:39;;;;;;;34.35;22.17;;;22.00;94.00;;;;;;4192614;28;20486;-74
2021/11/26 00:29:43;;;;;;;28.30;20.42;;;22.10;93.90;;;;;;4189344;28;20041;-74
2021/11/26 00:31:47;;;;;;;27.13;19.77;;;22.20;93.80;;;;;;4180454;28;20106;-74
2021/11/26 00:33:52;;;;;;;33.67;19.30;;;22.20;93.80;;;;;;4178147;28;20049;-75
2021/11/26 00:35:58;;;;;;;26.88;19.08;;;22.20;93.50;;;;;;4180575;28;20569;-73
2021/11/26 00:38:03;;;;;;;26.27;18.65;;;22.30;93.30;;;;;;4194679;28;20048;-73
2021/11/26 00:40:08;;;;;;;29.02;17.80;;;22.30;93.30;;;;;;4195182;28;20410;-73
2021/11/26 00:42:12;;;;;;;23.42;16.05;;;22.20;92.90;;;;;;4193626;28;20059;-74
2021/11/26 00:44:17;;;;;;;20.83;15.68;;;22.10;92.80;;;;;;4176355;28;20041;-74
2021/11/26 00:46:21;;;;;;;20.73;15.27;;;22.00;92.90;;;;;;4192768;28;20039;-73
2021/11/26 00:48:26;;;;;;;21.80;14.70;;;21.90;92.80;;;;;;4193675;28;20075;-73
2021/11/26 00:50:31;;;;;;;22.48;15.32;;;21.90;93.00;;;;;;4193363;28;20511;-73
2021/11/26 00:52:35;;;;;;;20.20;14.85;;;22.20;92.90;;;;;;4191713;28;20110;-73
2021/11/26 00:54:39;;;;;;;21.92;14.48;;;22.20;92.30;;;;;;4192715;28;20052;-73
2021/11/26 00:56:44;;;;;;;20.08;13.52;;;22.30;92.20;;;;;;4193611;28;20142;-73
2021/11/26 00:58:49;;;;;;;19.23;14.65;;;22.40;92.20;;;;;;4192364;28;20321;-73
2021/11/26 01:00:53;;;;;;;19.25;12.45;;;22.50;92.30;;;;;;4194169;28;20059;-74
2021/11/26 01:02:59;;;;;;;21.42;13.50;;;22.60;91.40;;;;;;4193244;28;20076;-76
2021/11/26 01:05:04;;;;;;;21.08;13.00;;;22.60;92.10;;;;;;4192776;28;20053;-75
2021/11/26 01:07:08;;;;;;;18.08;13.05;;;22.60;91.30;;;;;;4192946;28;20051;-75
2021/11/26 01:09:15;;;;;;;20.17;13.50;;;22.60;91.40;;;;;;4196991;28;20568;-75
2021/11/26 01:11:20;;;;;;;15.70;11.23;;;22.60;91.20;;;;;;4197540;28;20449;-74
2021/11/26 01:13:25;;;;;;;16.40;11.70;;;22.40;90.90;;;;;;4197898;28;20110;-77
2021/11/26 01:15:32;;;;;;;18.00;11.38;;;22.50;91.40;;;;;;4193059;28;20487;-74
2021/11/26 01:17:43;;;;;;;14.98;10.63;;;22.60;91.40;;;;;;4183633;28;20369;-74
2021/11/26 01:19:47;;;;;;;14.32;11.40;;;22.60;91.10;;;;;;4194622;28;20045;-74
2021/11/26 01:21:52;;;;;;;16.77;11.02;;;22.60;91.30;;;;;;4194814;28;20392;-72
2021/11/26 01:23:57;;;;;;;15.93;11.85;;;22.70;91.50;;;;;;4199519;28;20032;-73
2021/11/26 01:26:02;;;;;;;17.30;11.43;;;22.80;91.00;;;;;;4196885;28;20037;-73
2021/11/26 01:28:07;;;;;;;19.23;11.40;;;22.80;90.80;;;;;;4196935;28;20051;-74
2021/11/26 01:30:21;;;;;;;18.80;12.02;;;22.90;90.70;;;;;;4197650;28;20122;-74
2021/11/26 01:32:26;;;;;;;13.68;10.57;;;23.00;91.00;;;;;;4196370;28;20159;-74
2021/11/26 01:34:30;;;;;;;16.00;10.73;;;23.00;90.50;;;;;;4196960;28;20044;-74
2021/11/26 01:36:40;;;;;;;13.63;9.55;;;23.00;90.70;;;;;;4194481;28;20056;-77
2021/11/26 01:38:56;;;;;;;19.30;9.85;;;23.10;90.40;;;;;;4179192;28;20083;-74
2021/11/26 01:41:00;;;;;;;20.25;9.52;;;23.20;90.00;;;;;;4196627;28;20109;-74
2021/11/26 01:43:06;;;;;;;12.48;8.90;;;23.20;90.10;;;;;;4196976;28;20047;-75
2021/11/26 01:45:10;;;;;;;19.95;9.70;;;23.20;89.60;;;;;;4195966;28;20076;-74
2021/11/26 01:47:15;;;;;;;13.40;10.00;;;23.30;89.60;;;;;;4195833;28;20084;-75
2021/11/26 01:49:20;;;;;;;12.95;9.60;;;23.30;89.60;;;;;;4197713;28;20045;-74
2021/11/26 01:51:24;;;;;;;16.77;9.38;;;23.30;89.60;;;;;;4196495;28;20045;-74
2021/11/26 01:53:29;;;;;;;18.67;10.45;;;23.40;89.70;;;;;;4197011;28;20502;-74
2021/11/26 01:55:34;;;;;;;14.35;9.25;;;23.50;88.60;;;;;;4195115;28;20063;-75
2021/11/26 01:57:39;;;;;;;14.73;9.82;;;23.50;88.70;;;;;;4196190;28;20134;-76
2021/11/26 01:59:44;;;;;;;15.73;10.45;;;23.50;89.20;;;;;;4195190;28;20070;-75
2021/11/26 02:01:49;;;;;;;14.50;9.57;;;23.50;89.20;;;;;;4194781;28;20045;-73
2021/11/26 02:03:54;;;;;;;14.98;9.73;;;23.60;88.80;;;;;;4177203;28;20041;-76
2021/11/26 02:05:58;;;;;;;13.07;10.00;;;23.70;88.10;;;;;;4195309;28;20053;-75
2021/11/26 02:08:03;;;;;;;14.35;9.77;;;23.70;87.60;;;;;;4194685;28;20051;-74
2021/11/26 02:10:08;;;;;;;13.85;9.75;;;23.80;87.60;;;;;;4196977;28;20419;-76
2021/11/26 02:12:12;;;;;;;21.13;9.98;;;23.90;88.10;;;;;;4173963;28;20061;-76
2021/11/26 02:14:17;;;;;;;15.02;9.40;;;23.90;88.20;;;;;;4177004;28;20048;-76
2021/11/26 02:16:21;;;;;;;14.85;8.95;;;24.00;87.90;;;;;;4175253;28;20037;-75
2021/11/26 02:18:26;;;;;;;11.20;7.68;;;24.00;86.60;;;;;;4176685;28;20072;-71
2021/11/26 02:20:30;;;;;;;18.00;7.82;;;24.10;86.20;;;;;;4177723;28;20505;-74
2021/11/26 02:22:35;;;;;;;12.05;7.95;;;24.10;85.40;;;;;;4174511;28;20044;-76
2021/11/26 02:24:40;;;;;;;12.88;8.52;;;24.20;85.90;;;;;;4175291;28;20091;-75
2021/11/26 02:26:45;;;;;;;11.00;8.00;;;24.30;85.70;;;;;;4183529;28;20139;-74
2021/11/26 02:28:50;;;;;;;19.45;8.20;;;24.30;84.90;;;;;;4180603;28;20052;-74
2021/11/26 02:30:55;;;;;;;12.25;7.95;;;24.30;85.20;;;;;;4183389;28;20124;-74
2021/11/26 02:33:01;;;;;;;12.20;8.02;;;24.40;84.40;;;;;;4176020;28;21097;-74
2021/11/26 02:35:07;;;;;;;13.68;7.85;;;24.40;84.70;;;;;;4174261;28;20057;-75
2021/11/26 02:37:12;;;;;;;11.25;7.63;;;24.50;85.10;;;;;;4177234;28;20044;-75
2021/11/26 02:39:17;;;;;;;16.33;8.63;;;24.50;84.80;;;;;;4182520;28;20044;-75
2021/11/26 02:41:21;;;;;;;13.13;8.20;;;24.60;84.70;;;;;;4183523;28;20571;-75
2021/11/26 02:43:25;;;;;;;11.75;7.35;;;24.70;84.20;;;;;;4187101;28;20072;-75
2021/11/26 02:45:30;;;;;;;23.30;8.20;;;24.70;84.40;;;;;;4192515;28;20538;-75
2021/11/26 02:47:34;;;;;;;10.88;7.75;;;24.80;84.50;;;;;;4194542;28;20090;-75
2021/11/26 02:49:39;;;;;;;10.48;7.32;;;24.80;83.60;;;;;;4194265;28;20045;-74
2021/11/26 02:51:44;;;;;;;13.02;7.50;;;24.90;83.70;;;;;;4202781;28;20044;-74
2021/11/26 02:53:48;;;;;;;12.32;7.30;;;24.90;83.90;;;;;;4202050;28;20113;-73
2021/11/26 02:55:53;;;;;;;16.77;7.18;;;25.00;83.90;;;;;;4211383;28;20048;-73
2021/11/26 02:57:58;;;;;;;11.80;7.40;;;25.10;82.70;;;;;;4201431;28;20430;-74
2021/11/26 03:00:04;;;;;;;16.92;8.02;;;25.10;83.50;;;;;;4191212;28;20044;-74
2021/11/26 03:02:09;;;;;;;11.23;7.35;;;25.20;83.50;;;;;;4192958;28;20589;-73
2021/11/26 03:04:13;;;;;;;12.45;7.57;;;25.20;83.10;;;;;;4198693;28;20044;-73
2021/11/26 03:06:18;;;;;;;15.52;6.93;;;25.20;83.10;;;;;;4204729;28;20058;-73
2021/11/26 03:08:22;;;;;;;11.35;6.80;;;25.20;83.20;;;;;;4190669;28;20068;-74
2021/11/26 03:10:27;;;;;;;11.80;6.47;;;25.30;83.30;;;;;;4189717;28;20397;-73
2021/11/26 03:12:32;;;;;;;10.13;5.85;;;25.30;83.00;;;;;;4198557;28;20036;-73
2021/11/26 03:14:37;;;;;;;10.73;6.60;;;25.30;82.70;;;;;;4198403;28;20047;-74
2021/11/26 03:16:42;;;;;;;8.13;6.05;;;25.40;82.90;;;;;;4206834;28;20473;-73
2021/11/26 03:18:47;;;;;;;9.07;6.30;;;25.50;83.70;;;;;;4209769;28;20829;-74
2021/11/26 03:20:51;;;;;;;9.93;5.75;;;25.50;82.30;;;;;;4193283;28;20541;-75
2021/11/26 03:22:56;;;;;;;9.68;6.05;;;25.60;82.70;;;;;;4193475;28;20051;-75
2021/11/26 03:25:02;;;;;;;9.60;6.15;;;25.60;82.70;;;;;;4190999;28;20150;-75
2021/11/26 03:27:06;;;;;;;9.10;5.80;;;25.60;82.50;;;;;;4193263;28;20044;-74
2021/11/26 03:29:11;;;;;;;11.55;8.15;;;25.70;82.30;;;;;;4194921;28;20044;-74
2021/11/26 03:31:16;;;;;;;11.85;6.57;;;25.80;81.80;;;;;;4194542;28;20433;-75
2021/11/26 03:33:21;;;;;;;7.68;5.70;;;25.80;81.90;;;;;;4195098;28;20051;-74
2021/11/26 03:35:25;;;;;;;9.18;5.38;;;25.80;81.90;;;;;;4192930;28;20062;-73
2021/11/26 03:37:30;;;;;;;9.60;6.00;;;25.80;82.10;;;;;;4192155;28;20529;-74
2021/11/26 03:39:35;;;;;;;9.25;5.57;;;25.80;81.50;;;;;;4189739;28;20556;-73
2021/11/26 03:41:39;;;;;;;8.98;5.43;;;25.90;82.00;;;;;;4181135;28;20057;-74
2021/11/26 03:43:44;;;;;;;10.80;5.45;;;25.90;81.80;;;;;;4179352;28;20067;-74
2021/11/26 03:45:48;;;;;;;8.35;5.72;;;25.90;81.90;;;;;;4197334;28;20067;-74
2021/11/26 03:47:53;;;;;;;11.55;5.03;;;26.00;82.10;;;;;;4211556;28;20048;-73
2021/11/26 03:49:57;;;;;;;10.13;5.25;;;26.10;82.00;;;;;;4212646;28;20044;-74
2021/11/26 03:52:02;;;;;;;18.08;5.82;;;26.10;82.00;;;;;;4197363;28;20442;-73
2021/11/26 03:54:07;;;;;;;9.35;5.13;;;26.10;81.60;;;;;;4194606;28;20572;-73
2021/11/26 03:56:11;;;;;;;8.15;5.32;;;26.10;81.50;;;;;;4193025;28;20053;-73
2021/11/26 03:58:16;;;;;;;8.98;5.43;;;26.20;81.40;;;;;;4188842;28;20056;-73
2021/11/26 04:00:20;;;;;;;8.68;5.38;;;26.30;81.40;;;;;;4186376;28;20040;-73
2021/11/26 04:02:25;;;;;;;8.70;5.22;;;26.30;80.70;;;;;;4193907;28;20067;-73
2021/11/26 04:04:30;;;;;;;10.48;4.70;;;26.40;81.10;;;;;;4194192;28;20045;-73
2021/11/26 04:06:34;;;;;;;9.77;5.05;;;26.40;81.10;;;;;;4193225;28;20032;-72
2021/11/26 04:08:39;;;;;;;11.43;4.88;;;26.40;81.80;;;;;;4195812;28;20075;-73
2021/11/26 04:10:43;;;;;;;9.35;4.97;;;26.50;81.70;;;;;;4188767;28;20430;-73
2021/11/26 04:12:49;;;;;;;9.75;5.40;;;26.50;80.90;;;;;;4184711;28;20092;-72
2021/11/26 04:14:54;;;;;;;8.40;4.57;;;26.60;81.00;;;;;;4180472;28;20045;-72
2021/11/26 04:16:58;;;;;;;12.85;4.90;;;26.60;80.70;;;;;;4192770;28;20047;-72
2021/11/26 04:19:04;;;;;;;11.75;4.82;;;26.70;80.90;;;;;;4195623;28;20185;-72
2021/11/26 04:21:08;;;;;;;7.28;5.40;;;26.70;80.30;;;;;;4191224;28;20102;-72
2021/11/26 04:23:13;;;;;;;12.43;5.93;;;26.70;80.20;;;;;;4194662;28;20059;-72
2021/11/26 04:25:17;;;;;;;7.13;5.10;;;26.70;80.10;;;;;;4193223;28;20052;-72
2021/11/26 04:27:23;;;;;;;8.10;4.90;;;26.80;80.10;;;;;;4192885;28;20054;-72
2021/11/26 04:29:29;;;;;;;12.68;4.88;;;26.90;79.30;;;;;;4195224;28;20161;-72
2021/11/26 04:31:33;;;;;;;11.07;4.95;;;26.90;79.40;;;;;;4193657;28;20122;-72
2021/11/26 04:33:37;;;;;;;11.35;5.13;;;26.90;79.60;;;;;;4194889;28;20124;-71
2021/11/26 04:35:46;;;;;;;191.40;13.50;;;26.90;79.90;;;;;;4172802;28;20178;-71
2021/11/26 04:37:51;;;;;;;42.17;7.47;;;27.00;80.20;;;;;;4186648;28;20059;-72
2021/11/26 04:39:55;;;;;;;18.23;5.25;;;27.10;79.90;;;;;;4193006;28;20134;-72
2021/11/26 04:42:00;;;;;;;11.75;5.97;;;27.10;79.40;;;;;;4190639;28;20675;-73
2021/11/26 04:44:04;;;;;;;9.65;4.50;;;27.10;79.10;;;;;;4191819;28;20423;-72
2021/11/26 04:46:09;;;;;;;6.38;4.78;;;27.10;79.50;;;;;;4190474;28;20044;-71
2021/11/26 04:48:14;;;;;;;6.50;4.18;;;27.20;78.70;;;;;;4191345;28;20068;-72
2021/11/26 04:50:19;;;;;;;9.00;4.43;;;27.10;78.30;;;;;;4192553;28;20602;-71
2021/11/26 04:52:23;;;;;;;6.85;4.57;;;27.20;78.20;;;;;;4190408;28;20044;-73
2021/11/26 04:54:28;;;;;;;6.07;4.72;;;27.20;78.20;;;;;;4191579;28;20044;-72
2021/11/26 04:56:32;;;;;;;7.93;4.50;;;27.20;78.30;;;;;;4190689;28;20434;-72
2021/11/26 04:58:37;;;;;;;6.18;4.53;;;27.20;78.40;;;;;;4191920;28;20060;-72
2021/11/26 05:00:42;;;;;;;9.25;4.80;;;27.20;77.90;;;;;;4192185;28;20052;-72
2021/11/26 05:02:47;;;;;;;11.60;5.00;;;27.20;78.00;;;;;;4172548;28;20067;-73
2021/11/26 05:04:51;;;;;;;8.25;4.53;;;27.30;78.20;;;;;;4190093;28;20118;-73
2021/11/26 05:06:56;;;;;;;6.07;4.95;;;27.30;78.10;;;;;;4190352;28;20087;-72
2021/11/26 05:09:04;;;;;;;6.47;4.90;;;27.40;78.40;;;;;;4174671;28;20049;-71
2021/11/26 05:11:09;;;;;;;9.13;5.35;;;27.40;78.60;;;;;;4192497;28;20067;-72
2021/11/26 05:13:13;;;;;;;16.55;5.18;;;27.50;78.10;;;;;;4190494;28;20178;-71
2021/11/26 05:15:24;;;;;;;10.52;5.18;;;27.60;77.80;;;;;;4190262;28;20043;-71
2021/11/26 05:17:29;;;;;;;8.32;5.22;;;27.60;77.00;;;;;;4169998;28;20119;-71
2021/11/26 05:19:33;;;;;;;8.73;4.95;;;27.60;76.80;;;;;;4192503;28;20044;-71
2021/11/26 05:21:37;;;;;;;12.18;4.82;;;27.50;77.20;;;;;;4186727;28;20067;-71
2021/11/26 05:23:42;;;;;;;11.55;5.13;;;27.50;77.10;;;;;;4190584;28;20052;-71
2021/11/26 05:25:46;;;;;;;9.20;5.20;;;27.50;77.30;;;;;;4190054;28;20036;-71
2021/11/26 05:27:51;;;;;;;28.20;6.38;;;27.50;77.40;;;;;;4195847;28;20491;-72
2021/11/26 05:29:56;;;;;;;9.10;5.07;;;27.50;77.50;;;;;;4194984;28;20387;-71
2021/11/26 05:32:00;;;;;;;11.45;5.22;;;27.80;76.80;;;;;;4198978;28;20047;-71
2021/11/26 05:34:05;;;;;;;29.73;5.93;;;27.70;76.70;;;;;;4199121;28;20159;-72
2021/11/26 05:36:10;;;;;;;10.18;5.00;;;27.80;77.50;;;;;;4191995;28;20048;-71
2021/11/26 05:38:14;;;;;;;7.75;4.70;;;27.80;76.90;;;;;;4197675;28;20055;-71
2021/11/26 05:40:19;;;;;;;9.50;5.22;;;27.80;77.40;;;;;;4190234;28;20063;-72
2021/11/26 05:42:24;;;;;;;12.32;5.10;;;27.80;77.20;;;;;;4189973;28;20055;-72
2021/11/26 05:44:29;;;;;;;11.80;4.90;;;27.90;77.30;;;;;;4191882;28;20067;-71
2021/11/26 05:46:33;;;;;;;119.93;11.25;;;27.90;77.00;;;;;;4192731;28;20127;-75
2021/11/26 05:48:37;;;;;;;21.05;5.90;;;27.90;77.30;;;;;;4193206;28;20557;-72
2021/11/26 05:50:42;;;;;;;10.00;4.90;;;27.90;76.20;;;;;;4190662;28;20556;-71
2021/11/26 05:52:46;;;;;;;13.45;5.53;;;27.80;76.40;;;;;;4192459;28;20041;-71
2021/11/26 05:54:51;;;;;;;10.48;4.80;;;27.90;76.60;;;;;;4187671;28;20064;-70
2021/11/26 05:56:55;;;;;;;7.68;4.65;;;27.90;76.30;;;;;;4189128;28;20041;-70
2021/11/26 05:58:59;;;;;;;9.88;5.72;;;27.90;76.80;;;;;;4191132;28;20457;-71
2021/11/26 06:01:04;;;;;;;6.88;4.80;;;28.00;76.80;;;;;;4189889;28;20052;-70
2021/11/26 06:03:08;;;;;;;9.13;5.18;;;28.00;76.50;;;;;;4188868;28;20044;-70
2021/11/26 06:05:13;;;;;;;11.30;4.85;;;28.10;76.50;;;;;;4188538;28;20072;-71
2021/11/26 06:07:19;;;;;;;17.23;5.00;;;28.10;76.80;;;;;;4187554;28;20063;-71
2021/11/26 06:09:23;;;;;;;8.73;4.50;;;28.30;75.50;;;;;;4191762;28;20115;-71
2021/11/26 06:11:29;;;;;;;5.80;4.57;;;28.20;75.80;;;;;;4192643;28;20429;-71
2021/11/26 06:13:33;;;;;;;8.00;4.72;;;28.20;76.30;;;;;;4193528;28;20560;-71
2021/11/26 06:15:38;;;;;;;8.73;4.88;;;28.20;75.50;;;;;;4191844;28;20051;-71
2021/11/26 06:17:42;;;;;;;7.35;4.80;;;28.20;75.40;;;;;;4193886;28;20045;-72
2021/11/26 06:19:47;;;;;;;13.38;4.85;;;28.20;75.60;;;;;;4208845;28;20056;-73
2021/11/26 06:21:51;;;;;;;8.35;3.90;;;28.30;75.70;;;;;;4210235;28;20040;-73
2021/11/26 06:23:56;;;;;;;6.75;4.25;;;28.30;75.60;;;;;;4192424;28;20068;-72
2021/11/26 06:26:00;;;;;;;12.60;4.57;;;28.30;75.70;;;;;;4192419;28;20059;-70
2021/11/26 06:28:05;;;;;;;7.50;4.28;;;28.40;76.20;;;;;;4194013;28;20059;-71
2021/11/26 06:30:12;;;;;;;9.73;4.10;;;28.40;75.10;;;;;;4192485;28;20499;-69
2021/11/26 06:32:16;;;;;;;8.70;4.15;;;28.40;75.40;;;;;;4191790;28;20052;-71
2021/11/26 06:34:20;;;;;;;9.43;3.45;;;28.40;75.70;;;;;;4193204;28;20445;-70
2021/11/26 06:36:25;;;;;;;7.63;3.75;;;28.50;74.70;;;;;;4193562;28;20052;-72
2021/11/26 06:38:29;;;;;;;6.50;3.45;;;28.50;75.20;;;;;;4193415;28;20055;-71
2021/11/26 06:40:34;;;;;;;6.93;3.10;;;28.50;74.60;;;;;;4190224;28;20041;-71
2021/11/26 06:42:41;;;;;;;9.50;3.15;;;28.50;74.10;;;;;;4175260;28;20049;-71
2021/11/26 06:44:46;;;;;;;4.55;2.88;;;28.40;74.40;;;;;;4193947;28;20160;-71
2021/11/26 06:46:50;;;;;;;4.40;3.00;;;28.50;74.10;;;;;;4193597;28;20122;-71
2021/11/26 06:48:55;;;;;;;7.28;3.05;;;28.50;73.80;;;;;;4191098;28;20177;-72
2021/11/26 06:50:59;;;;;;;6.82;3.35;;;28.50;74.30;;;;;;4192229;28;20045;-72
2021/11/26 06:53:05;;;;;;;4.75;3.70;;;28.50;74.40;;;;;;4191644;28;20590;-72
2021/11/26 06:55:09;;;;;;;6.60;4.13;;;28.50;74.20;;;;;;4193238;28;20052;-71
2021/11/26 06:57:14;;;;;;;5.50;4.07;;;28.50;74.40;;;;;;4192795;28;20044;-71
2021/11/26 06:59:19;;;;;;;9.55;4.03;;;28.50;74.20;;;;;;4195195;28;20040;-70
2021/11/26 07:01:24;;;;;;;6.57;4.40;;;28.50;74.30;;;;;;4191664;28;20055;-69
2021/11/26 07:03:29;;;;;;;6.18;4.47;;;28.60;73.30;;;;;;4194541;28;20062;-70
2021/11/26 07:05:33;;;;;;;5.97;4.55;;;28.60;74.00;;;;;;4193608;28;20047;-69
2021/11/26 07:07:38;;;;;;;8.15;4.03;;;28.60;74.60;;;;;;4193666;28;20040;-71
2021/11/26 07:09:42;;;;;;;7.10;4.53;;;28.60;74.70;;;;;;4192401;28;20179;-70
2021/11/26 07:11:46;;;;;;;5.72;3.63;;;28.60;74.50;;;;;;4190877;28;20071;-71
2021/11/26 07:14:11;;;;;;;5.95;4.03;;;28.60;74.40;;;;;;4193154;28;20040;-69
2021/11/26 07:16:15;;;;;;;8.50;3.95;;;28.60;75.20;;;;;;4193699;28;20054;-70
2021/11/26 07:18:20;;;;;;;10.38;4.15;;;28.60;74.50;;;;;;4195723;28;20048;-71
2021/11/26 07:20:24;;;;;;;6.07;4.28;;;28.60;74.00;;;;;;4193010;28;20051;-70
2021/11/26 07:22:30;;;;;;;6.35;4.15;;;28.60;73.90;;;;;;4189248;28;20049;-70
2021/11/26 07:24:35;;;;;;;7.43;4.03;;;28.60;73.90;;;;;;4194561;28;20045;-70
2021/11/26 07:26:39;;;;;;;6.85;3.60;;;28.60;74.30;;;;;;4188748;28;20045;-70
2021/11/26 07:28:43;;;;;;;10.20;4.55;;;28.60;74.00;;;;;;4193412;28;20072;-70
2021/11/26 07:30:48;;;;;;;7.95;3.58;;;28.60;73.70;;;;;;4194918;28;20080;-70
2021/11/26 07:32:52;;;;;;;5.72;3.75;;;28.60;73.80;;;;;;4195370;28;20041;-71
2021/11/26 07:34:57;;;;;;;7.97;6.15;;;28.60;73.80;;;;;;4194537;28;20052;-71
2021/11/26 07:37:02;;;;;;;11.90;5.95;;;28.60;73.20;;;;;;4189842;28;20361;-71
2021/11/26 07:39:08;;;;;;;15.65;8.75;;;28.70;73.30;;;;;;4195007;28;20399;-70
2021/11/26 07:41:12;;;;;;;15.63;4.82;;;28.60;73.40;;;;;;4194209;28;20114;-71
2021/11/26 07:43:17;;;;;;;8.25;4.82;;;28.60;74.00;;;;;;4195341;28;20044;-72
2021/11/26 07:45:21;;;;;;;7.55;4.50;;;28.60;73.80;;;;;;4191200;28;20056;-70
2021/11/26 07:47:26;;;;;;;15.68;4.20;;;28.60;73.30;;;;;;4193486;28;20050;-72
2021/11/26 07:49:30;;;;;;;6.00;3.85;;;28.60;73.30;;;;;;4194952;28;20453;-72
2021/11/26 07:51:35;;;;;;;8.65;4.25;;;28.60;73.30;;;;;;4193626;28;20044;-72
2021/11/26 07:53:39;;;;;;;9.15;3.85;;;28.60;73.40;;;;;;4194405;28;20052;-72
2021/11/26 07:55:44;;;;;;;8.55;4.30;;;28.60;73.10;;;;;;4193332;28;20045;-71
2021/11/26 07:57:50;;;;;;;8.10;4.15;;;28.60;73.40;;;;;;4194611;28;20048;-72
2021/11/26 07:59:56;;;;;;;13.63;4.65;;;28.60;73.60;;;;;;4195605;28;20074;-72
2021/11/26 08:02:00;;;;;;;8.85;4.90;;;28.60;73.80;;;;;;4190663;28;20059;-71
2021/11/26 08:04:05;;;;;;;9.30;4.63;;;28.60;73.50;;;;;;4190049;28;20055;-71
2021/11/26 08:06:10;;;;;;;14.38;4.68;;;28.60;73.70;;;;;;4190327;28;20083;-71
2021/11/26 08:08:15;;;;;;;9.45;4.30;;;28.60;73.40;;;;;;4194778;28;20043;-71
2021/11/26 08:10:20;;;;;;;10.10;4.85;;;28.60;73.50;;;;;;4192693;28;20148;-72
2021/11/26 08:12:24;;;;;;;11.65;5.63;;;28.60;73.60;;;;;;4193737;28;20041;-70
2021/11/26 08:14:28;;;;;;;10.98;5.35;;;28.60;73.30;;;;;;4193999;28;20478;-71
2021/11/26 08:16:33;;;;;;;6.72;4.50;;;28.60;73.40;;;;;;4175471;28;20040;-71
2021/11/26 08:18:37;;;;;;;13.30;6.00;;;28.60;73.30;;;;;;4194883;28;20056;-70
2021/11/26 08:20:42;;;;;;;9.25;4.78;;;28.60;73.30;;;;;;4193555;28;20575;-70
2021/11/26 08:22:47;;;;;;;13.25;5.65;;;28.60;73.40;;;;;;4193356;28;20078;-70
2021/11/26 08:24:52;;;;;;;12.80;4.60;;;28.60;73.40;;;;;;4192608;28;20375;-70
2021/11/26 08:26:57;;;;;;;9.68;5.63;;;28.50;73.10;;;;;;4192652;28;20052;-70
2021/11/26 08:29:05;;;;;;;6.47;4.40;;;28.50;72.80;;;;;;4192924;28;20033;-70
2021/11/26 08:31:09;;;;;;;9.98;4.65;;;28.50;73.60;;;;;;4193410;28;20044;-70
2021/11/26 08:33:14;;;;;;;14.50;4.60;;;28.60;73.30;;;;;;4193274;28;20040;-70
2021/11/26 08:35:18;;;;;;;7.00;5.00;;;28.60;73.50;;;;;;4190812;28;20040;-70
2021/11/26 08:37:23;;;;;;;18.23;7.80;;;28.60;73.80;;;;;;4187989;28;20048;-71
2021/11/26 08:39:28;;;;;;;9.23;5.40;;;28.60;73.80;;;;;;4171157;28;20320;-70
2021/11/26 08:41:33;;;;;;;10.63;4.75;;;28.50;73.70;;;;;;4192485;28;20531;-70
2021/11/26 08:43:38;;;;;;;11.75;6.80;;;28.50;73.80;;;;;;4192466;28;20155;-70
2021/11/26 08:45:43;;;;;;;16.05;10.15;;;28.50;74.20;;;;;;4188896;28;20788;-69
2021/11/26 08:47:47;;;;;;;7.60;5.20;;;28.50;74.00;;;;;;4190595;28;20048;-69
2021/11/26 08:49:52;;;;;;;10.85;5.40;;;28.50;74.10;;;;;;4187815;28;20032;-70
2021/11/26 08:51:57;;;;;;;8.85;4.63;;;28.40;74.00;;;;;;4189981;28;20163;-70
2021/11/26 08:54:02;;;;;;;7.43;4.85;;;28.40;73.90;;;;;;4190076;28;20052;-70
2021/11/26 08:56:07;;;;;;;6.65;5.00;;;28.40;74.20;;;;;;4189495;28;20552;-70
2021/11/26 08:58:14;;;;;;;13.55;5.82;;;28.40;74.10;;;;;;4191334;28;20155;-70
2021/11/26 09:00:22;;;;;;;17.65;5.47;;;28.40;74.80;;;;;;4190980;28;20040;-69
2021/11/26 09:02:27;;;;;;;9.13;5.15;;;28.30;74.50;;;;;;4188891;28;20041;-70
2021/11/26 09:04:34;;;;;;;8.10;5.07;;;28.30;74.30;;;;;;4190293;28;20048;-69
2021/11/26 09:06:39;;;;;;;10.10;4.82;;;28.20;74.10;;;;;;4189340;28;20076;-69
2021/11/26 09:08:43;;;;;;;11.00;4.93;;;28.20;74.20;;;;;;4186107;28;20068;-70
2021/11/26 09:10:48;;;;;;;6.93;5.30;;;28.10;74.20;;;;;;4190043;28;20052;-69
2021/11/26 09:12:52;;;;;;;11.25;6.95;;;28.10;74.40;;;;;;4172668;28;20048;-69
2021/11/26 09:14:56;;;;;;;11.70;6.55;;;28.10;74.80;;;;;;4190537;28;20127;-70
2021/11/26 09:17:02;;;;;;;8.65;5.97;;;28.20;75.10;;;;;;4187471;28;20060;-70
2021/11/26 09:19:07;;;;;;;15.80;7.90;;;28.20;75.20;;;;;;4191346;28;20064;-69
2021/11/26 09:21:12;;;;;;;14.70;10.10;;;28.10;75.00;;;;;;4190052;28;20048;-70
2021/11/26 09:23:17;;;;;;;16.42;11.20;;;28.10;75.10;;;;;;4189743;28;20491;-70
2021/11/26 09:25:22;;;;;;;14.35;9.07;;;28.00;75.20;;;;;;4186698;28;20423;-70
2021/11/26 09:27:26;;;;;;;11.05;7.70;;;28.10;75.30;;;;;;4190349;28;20128;-71
2021/11/26 09:29:31;;;;;;;9.32;6.55;;;28.00;75.20;;;;;;4191064;28;20414;-71
2021/11/26 09:31:35;;;;;;;13.23;7.00;;;28.00;75.30;;;;;;4190061;28;20044;-71
2021/11/26 09:33:40;;;;;;;8.52;5.88;;;28.00;75.30;;;;;;4188979;28;20059;-70
2021/11/26 09:35:45;;;;;;;9.93;5.80;;;28.00;75.70;;;;;;4189927;28;20052;-70
2021/11/26 09:37:50;;;;;;;7.78;5.85;;;28.00;75.90;;;;;;4189767;28;21435;-70
2021/11/26 09:39:54;;;;;;;8.38;6.00;;;28.00;76.00;;;;;;4189568;28;20041;-69
2021/11/26 09:41:59;;;;;;;11.48;6.35;;;28.00;76.50;;;;;;4187396;28;20181;-70
2021/11/26 09:44:04;;;;;;;15.15;6.57;;;28.00;76.40;;;;;;4189146;28;20064;-70
2021/11/26 09:46:08;;;;;;;12.30;5.72;;;27.90;76.40;;;;;;4192776;28;20044;-70
2021/11/26 09:48:12;;;;;;;11.25;6.20;;;27.90;76.40;;;;;;4194445;28;20410;-69
2021/11/26 09:50:18;;;;;;;8.48;5.80;;;27.90;76.20;;;;;;4191743;28;20041;-69
2021/11/26 09:52:22;;;;;;;15.43;6.43;;;27.90;76.30;;;;;;4190303;28;20043;-69
2021/11/26 09:54:27;;;;;;;11.50;6.40;;;27.90;76.40;;;;;;4193341;28;20072;-70
2021/11/26 09:56:31;;;;;;;13.00;6.85;;;27.80;76.40;;;;;;4192156;28;20634;-68
2021/11/26 09:58:36;;;;;;;9.93;6.55;;;27.80;76.40;;;;;;4193839;28;20044;-68
2021/11/26 10:00:41;;;;;;;13.45;6.75;;;27.80;76.50;;;;;;4191853;28;20045;-70
2021/11/26 10:02:56;;;;;;;10.75;6.05;;;27.80;76.60;;;;;;4193021;28;20052;-69
2021/11/26 10:05:03;;;;;;;11.88;6.63;;;27.70;76.30;;;;;;4190019;28;20036;-69
2021/11/26 10:07:10;;;;;;;13.75;7.10;;;27.70;76.40;;;;;;4192706;28;20055;-69
2021/11/26 10:09:19;;;;;;;13.93;8.57;;;27.70;76.70;;;;;;4194473;28;20090;-70
2021/11/26 10:11:25;;;;;;;14.57;7.80;;;27.70;76.70;;;;;;4192613;28;20436;-70
2021/11/26 10:13:30;;;;;;;18.77;8.57;;;27.70;76.80;;;;;;4190111;28;20075;-70
2021/11/26 10:15:41;;;;;;;14.23;9.35;;;27.70;76.90;;;;;;4190814;28;20558;-71
2021/11/26 10:17:46;;;;;;;19.77;9.73;;;27.60;77.00;;;;;;4193195;28;20045;-70
2021/11/26 10:19:59;;;;;;;18.17;10.73;;;27.60;77.20;;;;;;4194180;28;20480;-70
2021/11/26 10:22:20;;;;;;;21.67;11.93;;;27.60;77.40;;;;;;4192001;28;20048;-68
2021/11/26 10:24:25;;;;;;;17.90;11.40;;;27.60;77.40;;;;;;4192783;28;20052;-68
2021/11/26 10:26:30;;;;;;;18.80;11.48;;;27.50;77.60;;;;;;4191857;28;20245;-69
2021/11/26 10:28:39;;;;;;;19.40;11.00;;;27.50;77.80;;;;;;4193904;28;20049;-69
2021/11/26 10:30:46;;;;;;;20.58;13.60;;;27.50;77.90;;;;;;4191459;28;20049;-69
2021/11/26 10:33:03;;;;;;;20.27;12.38;;;27.50;78.00;;;;;;4174425;28;20503;-69
2021/11/26 10:35:08;;;;;;;21.63;11.40;;;27.40;78.00;;;;;;4190525;28;20426;-69
2021/11/26 10:37:27;;;;;;;17.55;11.55;;;27.40;78.10;;;;;;4156082;28;20049;-69
2021/11/26 10:39:33;;;;;;;19.23;10.35;;;27.40;78.00;;;;;;4158997;28;20049;-70
2021/11/26 10:41:38;;;;;;;18.40;9.60;;;27.40;78.10;;;;;;4158222;28;20136;-71
2021/11/26 10:51:30;;;;;;;25.70;10.57;;;27.30;78.00;;;;;;4111019;28;20150;-70